Time;durP1;ratioP1;P1;durP2;ratioP2;P2;SDS_P1;SDS_P2;PMS_P1;PMS_P2;Temp;Humidity;BMP_temperature;BMP_pressure;BME280_temperature;BME280_humidity;BME280_pressure;Samples;Min_cycle;Max_cycle;Signal;HPM_P1;HPM_P2
2020/12/18 00:02:06;;;;;;;;;;;;;;;;;;5131735;28;19931;-85
2020/12/18 00:04:33;;;;;;;;;;;;;;;;;;5127365;28;19907;-84
2020/12/18 00:07:01;;;;;;;;;;;;;;;;;;5136539;28;19934;-85
2020/12/18 00:09:30;;;;;;;;;;;;;;;;;;5135097;28;19953;-85
2020/12/18 00:11:56;;;;;;;;;;;;;;;;;;5118741;28;19924;-86
2020/12/18 00:14:22;;;;;;;;;;;;;;;;;;5128685;27;20383;-85
2020/12/18 00:16:49;;;;;;;;;;;;;;;;;;5119281;28;19924;-85
2020/12/18 00:19:15;;;;;;;;;;;;;;;;;;5104064;28;19924;-85
2020/12/18 00:21:42;;;;;;;;;;;;;;;;;;5117869;28;19935;-85
2020/12/18 00:24:08;;;;;;;;;;;;;;;;;;5114427;28;20276;-85
2020/12/18 00:26:35;;;;;;;;;;;;;;;;;;5120953;28;19928;-86
2020/12/18 00:29:02;;;;;;;;;;;;;;;;;;5121672;28;19975;-85
2020/12/18 00:31:28;;;;;;;;;;;;;;;;;;5121969;28;19931;-85
2020/12/18 00:33:54;;;;;;;;;;;;;;;;;;5108563;28;19931;-85
2020/12/18 00:36:21;;;;;;;;;;;;;;;;;;5100572;28;19977;-85
2020/12/18 00:38:47;;;;;;;;;;;;;;;;;;5106685;28;20276;-85
2020/12/18 00:41:14;;;;;;;;;;;;;;;;;;5118273;28;19937;-85
2020/12/18 00:43:40;;;;;;;;;;;;;;;;;;5120155;28;19923;-85
2020/12/18 00:46:06;;;;;;;;;;;;;;;;;;5119188;28;19924;-85
2020/12/18 00:48:33;;;;;;;;;;;;;;;;;;5118559;28;20372;-85
2020/12/18 00:50:59;;;;;;;;;;;;;;;;;;5120867;28;19965;-86
2020/12/18 00:53:25;;;;;;;;;;;;;;;;;;5113140;28;19928;-85
2020/12/18 00:55:52;;;;;;;;;;;;;;;;;;5120336;28;19931;-85
2020/12/18 00:58:19;;;;;;;;;;;;;;;;;;5121062;28;19946;-85
2020/12/18 01:00:45;;;;;;;;;;;;;;;;;;5122284;28;19963;-85
2020/12/18 01:03:11;;;;;;;;;;;;;;;;;;5121906;28;19928;-85
2020/12/18 01:05:38;;;;;;;;;;;;;;;;;;5121400;28;19924;-85
2020/12/18 01:08:04;;;;;;;;;;;;;;;;;;5120702;28;19931;-85
2020/12/18 01:10:30;;;;;;;;;;;;;;;;;;5136263;28;19934;-85
2020/12/18 01:12:57;;;;;;;;;;;;;;;;;;5137388;28;19930;-83
2020/12/18 01:15:23;;;;;;;;;;;;;;;;;;5122807;28;19946;-85
2020/12/18 01:17:50;;;;;;;;;;;;;;;;;;5121293;28;19931;-84
2020/12/18 01:20:16;;;;;;;;;;;;;;;;;;5121234;28;19928;-85
2020/12/18 01:22:42;;;;;;;;;;;;;;;;;;5121526;28;19931;-85
2020/12/18 01:25:09;;;;;;;;;;;;;;;;;;5121957;28;20395;-85
2020/12/18 01:27:35;;;;;;;;;;;;;;;;;;5114754;28;20157;-85
2020/12/18 01:30:02;;;;;;;;;;;;;;;;;;5117595;28;20492;-87
2020/12/18 01:32:28;;;;;;;;;;;;;;;;;;5121894;28;19928;-86
2020/12/18 01:34:54;;;;;;;;;;;;;;;;;;5115784;28;19924;-87
2020/12/18 01:37:21;;;;;;;;;;;;;;;;;;5139359;28;19912;-85
2020/12/18 01:39:47;;;;;;;;;;;;;;;;;;5124816;28;19924;-86
2020/12/18 01:42:13;;;;;;;;;;;;;;;;;;5120083;28;19923;-86
2020/12/18 01:44:40;;;;;;;;;;;;;;;;;;5119741;28;19924;-86
2020/12/18 01:47:06;;;;;;;;;;;;;;;;;;5109224;28;19928;-86
2020/12/18 01:49:32;;;;;;;;;;;;;;;;;;5102023;28;19931;-86
2020/12/18 01:51:59;;;;;;;;;;;;;;;;;;5117059;28;19924;-86
2020/12/18 01:54:25;;;;;;;;;;;;;;;;;;5117879;28;20000;-86
2020/12/18 01:56:52;;;;;;;;;;;;;;;;;;5111390;28;19923;-86
2020/12/18 01:59:18;;;;;;;;;;;;;;;;;;5118252;28;19924;-87
2020/12/18 02:01:44;;;;;;;;;;;;;;;;;;5120658;28;19937;-87
2020/12/18 02:04:11;;;;;;;;;;;;;;;;;;5139967;28;19935;-86
2020/12/18 02:06:37;;;;;;;;;;;;;;;;;;5119337;28;19969;-86
2020/12/18 02:09:04;;;;;;;;;;;;;;;;;;5117806;28;20026;-86
2020/12/18 02:11:30;;;;;;;;;;;;;;;;;;5101652;28;20364;-86
2020/12/18 02:13:57;;;;;;;;;;;;;;;;;;5116174;28;19931;-85
2020/12/18 02:16:23;;;;;;;;;;;;;;;;;;5118029;28;19924;-87
2020/12/18 02:18:50;;;;;;;;;;;;;;;;;;5101055;28;20389;-85
2020/12/18 02:21:16;;;;;;;;;;;;;;;;;;5103237;28;19924;-86
2020/12/18 02:23:43;;;;;;;;;;;;;;;;;;5097973;28;19924;-85
2020/12/18 02:26:09;;;;;;;;;;;;;;;;;;5112747;28;20287;-85
2020/12/18 02:28:35;;;;;;;;;;;;;;;;;;5118713;28;19928;-86
2020/12/18 02:31:02;;;;;;;;;;;;;;;;;;5111883;28;19938;-84
2020/12/18 02:33:30;;;;;;;;;;;;;;;;;;5120580;28;19908;-84
2020/12/18 02:35:56;;;;;;;;;;;;;;;;;;5111100;28;20052;-86
2020/12/18 02:38:23;;;;;;;;;;;;;;;;;;5118507;28;20268;-86
2020/12/18 02:40:49;;;;;;;;;;;;;;;;;;5105111;28;19924;-87
2020/12/18 02:43:15;;;;;;;;;;;;;;;;;;5118929;28;19973;-85
2020/12/18 02:45:42;;;;;;;;;;;;;;;;;;5110213;28;20368;-87
2020/12/18 02:48:09;;;;;;;;;;;;;;;;;;5120161;28;19931;-86
2020/12/18 02:50:35;;;;;;;;;;;;;;;;;;5116910;28;20472;-87
2020/12/18 02:53:02;;;;;;;;;;;;;;;;;;5119180;28;19924;-86
2020/12/18 02:55:28;;;;;;;;;;;;;;;;;;5118083;28;19924;-83
2020/12/18 02:57:54;;;;;;;;;;;;;;;;;;5119128;28;20391;-86
2020/12/18 03:00:21;;;;;;;;;;;;;;;;;;5107950;28;19924;-86
2020/12/18 03:02:47;;;;;;;;;;;;;;;;;;5108933;28;19925;-87
2020/12/18 03:05:13;;;;;;;;;;;;;;;;;;5106013;28;19923;-86
2020/12/18 03:07:40;;;;;;;;;;;;;;;;;;5098948;28;19924;-85
2020/12/18 03:10:06;;;;;;;;;;;;;;;;;;5107028;28;19923;-85
2020/12/18 03:12:32;;;;;;;;;;;;;;;;;;5119487;28;20291;-86
2020/12/18 03:14:59;;;;;;;;;;;;;;;;;;5120606;28;19923;-86
2020/12/18 03:17:25;;;;;;;;;;;;;;;;;;5107796;28;19935;-86
2020/12/18 03:19:52;;;;;;;;;;;;;;;;;;5127953;28;19954;-84
2020/12/18 03:22:18;;;;;;;;;;;;;;;;;;5135127;28;19924;-83
2020/12/18 03:24:44;;;;;;;;;;;;;;;;;;5135989;28;19908;-86
2020/12/18 03:27:11;;;;;;;;;;;;;;;;;;5135071;28;19926;-86
2020/12/18 03:29:37;;;;;;;;;;;;;;;;;;5127448;28;19928;-84
2020/12/18 03:32:03;;;;;;;;;;;;;;;;;;5128405;28;19930;-84
2020/12/18 03:34:30;;;;;;;;;;;;;;;;;;5126984;28;19924;-86
2020/12/18 03:36:56;;;;;;;;;;;;;;;;;;5107780;28;19932;-84
2020/12/18 03:39:22;;;;;;;;;;;;;;;;;;5097215;28;19983;-85
2020/12/18 03:41:49;;;;;;;;;;;;;;;;;;5098309;28;19924;-85
2020/12/18 03:44:15;;;;;;;;;;;;;;;;;;5100117;28;19928;-86
2020/12/18 03:46:42;;;;;;;;;;;;;;;;;;5103866;28;19924;-85
2020/12/18 03:49:08;;;;;;;;;;;;;;;;;;5098170;28;19931;-85
2020/12/18 03:51:34;;;;;;;;;;;;;;;;;;5114915;28;19924;-85
2020/12/18 03:54:01;;;;;;;;;;;;;;;;;;5106529;28;19924;-86
2020/12/18 03:56:27;;;;;;;;;;;;;;;;;;5113604;28;19924;-85
2020/12/18 03:58:53;;;;;;;;;;;;;;;;;;5098510;28;19924;-84
2020/12/18 04:01:20;;;;;;;;;;;;;;;;;;5098315;28;19978;-85
2020/12/18 04:03:46;;;;;;;;;;;;;;;;;;5098451;28;20265;-86
2020/12/18 04:06:13;;;;;;;;;;;;;;;;;;5114330;28;19931;-85
2020/12/18 04:08:39;;;;;;;;;;;;;;;;;;5107813;28;19927;-87
2020/12/18 04:11:05;;;;;;;;;;;;;;;;;;5115612;28;20063;-86
2020/12/18 04:13:32;;;;;;;;;;;;;;;;;;5097572;28;19924;-86
2020/12/18 04:15:58;;;;;;;;;;;;;;;;;;5102245;28;19931;-86
2020/12/18 04:18:25;;;;;;;;;;;;;;;;;;5116967;28;19930;-86
2020/12/18 04:20:51;;;;;;;;;;;;;;;;;;5104371;28;19969;-86
2020/12/18 04:23:17;;;;;;;;;;;;;;;;;;5123686;28;19931;-85
2020/12/18 04:25:44;;;;;;;;;;;;;;;;;;5123722;28;19947;-85
2020/12/18 04:28:10;;;;;;;;;;;;;;;;;;5106525;28;19931;-84
2020/12/18 04:30:37;;;;;;;;;;;;;;;;;;5114559;28;19931;-84
2020/12/18 04:33:03;;;;;;;;;;;;;;;;;;5124082;28;19923;-85
2020/12/18 04:35:30;;;;;;;;;;;;;;;;;;5122871;28;19915;-83
2020/12/18 04:37:56;;;;;;;;;;;;;;;;;;5143571;28;19927;-84
2020/12/18 04:40:22;;;;;;;;;;;;;;;;;;5119586;28;19923;-84
2020/12/18 04:42:49;;;;;;;;;;;;;;;;;;5121189;28;20394;-83
2020/12/18 04:45:15;;;;;;;;;;;;;;;;;;5113103;28;19982;-85
2020/12/18 04:47:41;;;;;;;;;;;;;;;;;;5099592;28;19931;-85
2020/12/18 04:50:08;;;;;;;;;;;;;;;;;;5112724;28;19977;-83
2020/12/18 04:52:34;;;;;;;;;;;;;;;;;;5120792;28;19924;-84
2020/12/18 04:55:00;;;;;;;;;;;;;;;;;;5104051;28;19931;-86
2020/12/18 04:57:28;;;;;;;;;;;;;;;;;;5106563;28;19924;-85
2020/12/18 04:59:54;;;;;;;;;;;;;;;;;;5124581;28;19951;-85
2020/12/18 05:02:20;;;;;;;;;;;;;;;;;;5142475;28;19908;-85
2020/12/18 05:04:47;;;;;;;;;;;;;;;;;;5126722;28;19915;-85
2020/12/18 05:07:13;;;;;;;;;;;;;;;;;;5137123;28;19924;-86
2020/12/18 05:09:41;;;;;;;;;;;;;;;;;;5114207;28;19977;-86
2020/12/18 05:12:07;;;;;;;;;;;;;;;;;;5100665;28;19924;-85
2020/12/18 05:14:34;;;;;;;;;;;;;;;;;;5108373;28;20410;-86
2020/12/18 05:17:00;;;;;;;;;;;;;;;;;;5120800;28;19930;-85
2020/12/18 05:19:26;;;;;;;;;;;;;;;;;;5108699;28;19935;-85
2020/12/18 05:21:53;;;;;;;;;;;;;;;;;;5120459;28;19930;-85
2020/12/18 05:24:19;;;;;;;;;;;;;;;;;;5114063;28;19924;-84
2020/12/18 05:26:46;;;;;;;;;;;;;;;;;;5135130;28;19947;-85
2020/12/18 05:29:12;;;;;;;;;;;;;;;;;;5126109;28;19924;-85
2020/12/18 05:31:38;;;;;;;;;;;;;;;;;;5109344;28;19924;-85
2020/12/18 05:34:05;;;;;;;;;;;;;;;;;;5112624;28;19958;-84
2020/12/18 05:36:31;;;;;;;;;;;;;;;;;;5100932;28;19932;-85
2020/12/18 05:38:57;;;;;;;;;;;;;;;;;;5117555;28;19924;-85
2020/12/18 05:41:24;;;;;;;;;;;;;;;;;;5121286;28;19930;-85
2020/12/18 05:43:50;;;;;;;;;;;;;;;;;;5118827;28;19924;-86
2020/12/18 05:46:16;;;;;;;;;;;;;;;;;;5121657;28;19924;-84
2020/12/18 05:48:43;;;;;;;;;;;;;;;;;;5119071;28;19976;-85
2020/12/18 05:51:09;;;;;;;;;;;;;;;;;;5122261;28;19931;-85
2020/12/18 05:53:36;;;;;;;;;;;;;;;;;;5119391;28;19927;-84
2020/12/18 05:56:02;;;;;;;;;;;;;;;;;;5122442;28;19924;-85
2020/12/18 05:58:28;;;;;;;;;;;;;;;;;;5122656;28;19923;-84
2020/12/18 06:00:55;;;;;;;;;;;;;;;;;;5121038;28;19928;-84
2020/12/18 06:03:21;;;;;;;;;;;;;;;;;;5104449;28;19924;-86
2020/12/18 06:05:47;;;;;;;;;;;;;;;;;;5117382;28;19924;-85
2020/12/18 06:08:14;;;;;;;;;;;;;;;;;;5106769;28;19924;-84
2020/12/18 06:10:40;;;;;;;;;;;;;;;;;;5118864;28;20334;-86
2020/12/18 06:13:06;;;;;;;;;;;;;;;;;;5109366;28;19931;-85
2020/12/18 06:15:33;;;;;;;;;;;;;;;;;;5112951;28;19935;-85
2020/12/18 06:17:59;;;;;;;;;;;;;;;;;;5109410;28;19924;-85
2020/12/18 06:20:26;;;;;;;;;;;;;;;;;;5100403;28;19927;-84
2020/12/18 06:22:52;;;;;;;;;;;;;;;;;;5109594;28;20330;-84
2020/12/18 06:25:18;;;;;;;;;;;;;;;;;;5119805;28;19931;-85
2020/12/18 06:27:45;;;;;;;;;;;;;;;;;;5118580;28;19927;-85
2020/12/18 06:30:11;;;;;;;;;;;;;;;;;;5120509;28;19973;-84
2020/12/18 06:32:38;;;;;;;;;;;;;;;;;;5114362;28;20387;-85
2020/12/18 06:35:04;;;;;;;;;;;;;;;;;;5106360;28;19977;-84
2020/12/18 06:37:30;;;;;;;;;;;;;;;;;;5127172;28;19924;-84
2020/12/18 06:39:57;;;;;;;;;;;;;;;;;;5104984;28;20391;-84
2020/12/18 06:42:23;;;;;;;;;;;;;;;;;;5111695;28;19924;-84
2020/12/18 06:44:49;;;;;;;;;;;;;;;;;;5118627;28;19957;-85
2020/12/18 06:47:16;;;;;;;;;;;;;;;;;;5117058;28;19924;-84
2020/12/18 06:49:42;;;;;;;;;;;;;;;;;;5116439;28;19924;-84
2020/12/18 06:52:09;;;;;;;;;;;;;;;;;;5112757;28;19969;-86
2020/12/18 06:54:35;;;;;;;;;;;;;;;;;;5114212;28;20083;-86
2020/12/18 06:57:01;;;;;;;;;;;;;;;;;;5098358;28;19931;-85
2020/12/18 06:59:28;;;;;;;;;;;;;;;;;;5111923;28;19908;-85
2020/12/18 07:01:54;;;;;;;;;;;;;;;;;;5111052;28;19931;-85
2020/12/18 07:04:20;;;;;;;;;;;;;;;;;;5109611;28;19924;-86
2020/12/18 07:06:47;;;;;;;;;;;;;;;;;;5109547;28;19924;-84
2020/12/18 07:09:13;;;;;;;;;;;;;;;;;;5109806;28;19924;-84
2020/12/18 07:11:40;;;;;;;;;;;;;;;;;;5120385;28;19924;-86
2020/12/18 07:14:14;;;;;;;;;;;;;;;;;;5117479;28;19924;-86
2020/12/18 07:16:41;;;;;;;;;;;;;;;;;;5130621;28;20372;-86
2020/12/18 07:19:07;;;;;;;;;;;;;;;;;;5123196;28;19924;-84
2020/12/18 07:21:34;;;;;;;;;;;;;;;;;;5114813;28;19924;-84
2020/12/18 07:24:00;;;;;;;;;;;;;;;;;;5109414;28;19950;-85
2020/12/18 07:26:26;;;;;;;;;;;;;;;;;;5120983;28;19931;-85
2020/12/18 07:28:53;;;;;;;;;;;;;;;;;;5121727;28;19924;-85
2020/12/18 07:31:19;;;;;;;;;;;;;;;;;;5124431;28;19923;-85
2020/12/18 07:33:45;;;;;;;;;;;;;;;;;;5138429;28;19949;-86
2020/12/18 07:36:12;;;;;;;;;;;;;;;;;;5130883;28;19924;-85
2020/12/18 07:38:38;;;;;;;;;;;;;;;;;;5126453;28;20372;-85
2020/12/18 07:41:05;;;;;;;;;;;;;;;;;;5132766;28;19923;-86
2020/12/18 07:43:32;;;;;;;;;;;;;;;;;;5130873;28;19924;-85
2020/12/18 07:45:59;;;;;;;;;;;;;;;;;;5131509;28;19971;-85
2020/12/18 07:48:25;;;;;;;;;;;;;;;;;;5121993;28;19927;-85
2020/12/18 07:50:52;;;;;;;;;;;;;;;;;;5137717;28;19950;-84
2020/12/18 07:53:18;;;;;;;;;;;;;;;;;;5133975;28;19931;-85
2020/12/18 07:55:44;;;;;;;;;;;;;;;;;;5131406;28;19923;-85
2020/12/18 07:58:11;;;;;;;;;;;;;;;;;;5121124;28;19924;-85
2020/12/18 08:00:37;;;;;;;;;;;;;;;;;;5131521;28;19970;-85
2020/12/18 08:03:04;;;;;;;;;;;;;;;;;;5123953;28;19924;-85
2020/12/18 08:05:30;;;;;;;;;;;;;;;;;;5118699;28;19924;-87
2020/12/18 08:07:57;;;;;;;;;;;;;;;;;;5116462;28;19924;-86
2020/12/18 08:10:23;;;;;;;;;;;;;;;;;;5134704;28;19924;-86
2020/12/18 08:12:50;;;;;;;;;;;;;;;;;;5138220;28;19923;-85
2020/12/18 08:15:16;;;;;;;;;;;;;;;;;;5151175;28;19908;-87
2020/12/18 08:17:45;;;;;;;;;;;;;;;;;;5130481;28;19907;-84
2020/12/18 08:20:13;;;;;;;;;;;;;;;;;;5136977;28;19925;-85
2020/12/18 08:22:41;;;;;;;;;;;;;;;;;;5120526;28;19967;-85
2020/12/18 08:25:07;;;;;;;;;;;;;;;;;;5111497;28;19924;-85
2020/12/18 08:27:34;;;;;;;;;;;;;;;;;;5125479;28;19946;-84
2020/12/18 08:30:00;;;;;;;;;;;;;;;;;;5124305;28;19924;-84
2020/12/18 08:32:26;;;;;;;;;;;;;;;;;;5117485;28;19924;-84
2020/12/18 08:34:53;;;;;;;;;;;;;;;;;;5106690;28;19924;-84
2020/12/18 08:37:19;;;;;;;;;;;;;;;;;;5118872;28;20339;-84
2020/12/18 08:39:45;;;;;;;;;;;;;;;;;;5113113;28;19950;-83
2020/12/18 08:42:12;;;;;;;;;;;;;;;;;;5131850;28;19923;-85
2020/12/18 08:44:38;;;;;;;;;;;;;;;;;;5125793;28;19924;-85
2020/12/18 08:47:05;;;;;;;;;;;;;;;;;;5126311;28;19927;-84
2020/12/18 08:49:31;;;;;;;;;;;;;;;;;;5127915;28;20299;-85
2020/12/18 08:51:57;;;;;;;;;;;;;;;;;;5111899;28;19924;-85
2020/12/18 08:54:24;;;;;;;;;;;;;;;;;;5113184;28;19924;-85
2020/12/18 08:56:50;;;;;;;;;;;;;;;;;;5126186;28;19908;-84
2020/12/18 08:59:16;;;;;;;;;;;;;;;;;;5136574;28;19908;-86
2020/12/18 09:01:43;;;;;;;;;;;;;;;;;;5135971;28;19931;-84
2020/12/18 09:04:09;;;;;;;;;;;;;;;;;;5135792;28;19923;-84
2020/12/18 09:06:37;;;;;;;;;;;;;;;;;;5135801;28;19908;-84
2020/12/18 09:09:03;;;;;;;;;;;;;;;;;;5133052;28;19924;-84
2020/12/18 09:11:30;;;;;;;;;;;;;;;;;;5120485;28;19927;-85
2020/12/18 09:13:58;;;;;;;;;;;;;;;;;;5128769;28;20400;-86
2020/12/18 09:16:24;;;;;;;;;;;;;;;;;;5112775;28;20523;-85
2020/12/18 09:18:51;;;;;;;;;;;;;;;;;;5108456;28;19924;-85
2020/12/18 09:21:17;;;;;;;;;;;;;;;;;;5124330;28;19930;-85
2020/12/18 09:23:44;;;;;;;;;;;;;;;;;;5123817;28;19923;-84
2020/12/18 09:26:10;;;;;;;;;;;;;;;;;;5133913;27;19930;-84
2020/12/18 09:28:37;;;;;;;;;;;;;;;;;;5125142;28;19923;-85
2020/12/18 09:31:03;;;;;;;;;;;;;;;;;;5130194;28;19923;-84
2020/12/18 09:49:59;;;;;;;;;;;;;;;;;;5130115;28;19942;-84
2020/12/18 09:55:10;;;;;;;;;;;;;;;;;;5135666;27;19951;-86
2020/12/18 09:57:37;;;;;;;;;;;;;;;;;;5139750;27;19977;-85
2020/12/18 10:00:03;;;;;;;;;;;;;;;;;;5139858;27;19924;-85
2020/12/18 10:02:29;;;;;;;;;;;;;;;;;;5125592;27;19932;-86
2020/12/18 10:04:56;;;;;;;;;;;;;;;;;;5123199;28;19923;-86
2020/12/18 10:07:22;;;;;;;;;;;;;;;;;;5122052;28;19963;-85
2020/12/18 10:09:49;;;;;;;;;;;;;;;;;;5123335;28;19943;-86
2020/12/18 10:12:15;;;;;;;;;;;;;;;;;;5114989;28;19934;-85
2020/12/18 10:14:42;;;;;;;;;;;;;;;;;;5127503;28;19931;-84
2020/12/18 10:17:08;;;;;;;;;;;;;;;;;;5127541;28;19977;-85
2020/12/18 10:19:35;;;;;;;;;;;;;;;;;;5120732;28;19935;-86
2020/12/18 10:22:01;;;;;;;;;;;;;;;;;;5130488;27;20014;-85
2020/12/18 10:24:28;;;;;;;;;;;;;;;;;;5120646;27;19932;-86
2020/12/18 10:26:54;;;;;;;;;;;;;;;;;;5116571;27;19923;-86
2020/12/18 10:29:21;;;;;;;;;;;;;;;;;;5124969;28;19924;-85
2020/12/18 10:31:47;;;;;;;;;;;;;;;;;;5113017;28;19923;-86
2020/12/18 10:34:13;;;;;;;;;;;;;;;;;;5123466;28;20280;-86
2020/12/18 10:36:40;;;;;;;;;;;;;;;;;;5118042;28;19928;-85
2020/12/18 10:39:06;;;;;;;;;;;;;;;;;;5110685;28;19938;-84
2020/12/18 10:41:33;;;;;;;;;;;;;;;;;;5114485;27;19935;-84
2020/12/18 10:43:59;;;;;;;;;;;;;;;;;;5116624;28;19945;-84
2020/12/18 10:46:26;;;;;;;;;;;;;;;;;;5121138;28;19928;-84
2020/12/18 10:48:52;;;;;;;;;;;;;;;;;;5119655;28;19978;-84
2020/12/18 10:51:18;;;;;;;;;;;;;;;;;;5124113;28;20403;-85
2020/12/18 10:53:45;;;;;;;;;;;;;;;;;;5124854;28;19935;-84
2020/12/18 10:56:11;;;;;;;;;;;;;;;;;;5108088;28;20298;-85
2020/12/18 10:58:38;;;;;;;;;;;;;;;;;;5136071;28;19920;-86
2020/12/18 11:01:04;;;;;;;;;;;;;;;;;;5128304;28;20400;-85
2020/12/18 11:03:30;;;;;;;;;;;;;;;;;;5129352;28;19946;-85
2020/12/18 11:05:57;;;;;;;;;;;;;;;;;;5119636;28;19924;-85
2020/12/18 11:08:23;;;;;;;;;;;;;;;;;;5108629;28;19924;-84
2020/12/18 11:10:50;;;;;;;;;;;;;;;;;;5120469;28;19931;-84
2020/12/18 11:13:16;;;;;;;;;;;;;;;;;;5129887;28;19931;-83
2020/12/18 11:15:43;;;;;;;;;;;;;;;;;;5120758;28;19924;-85
2020/12/18 11:18:10;;;;;;;;;;;;;;;;;;5112749;28;20019;-85
2020/12/18 11:20:36;;;;;;;;;;;;;;;;;;5133015;28;19930;-83
2020/12/18 11:23:03;;;;;;;;;;;;;;;;;;5137564;28;19949;-85
2020/12/18 11:25:29;;;;;;;;;;;;;;;;;;5118822;28;19931;-84
2020/12/18 11:27:55;;;;;;;;;;;;;;;;;;5122846;28;19924;-84
2020/12/18 11:30:22;;;;;;;;;;;;;;;;;;5113655;28;19931;-84
2020/12/18 11:32:49;;;;;;;;;;;;;;;;;;5119869;28;19924;-85
2020/12/18 11:35:16;;;;;;;;;;;;;;;;;;5110070;28;19970;-85
2020/12/18 11:37:42;;;;;;;;;;;;;;;;;;5103741;28;20378;-85
2020/12/18 11:40:09;;;;;;;;;;;;;;;;;;5123430;28;19923;-85
2020/12/18 11:42:36;;;;;;;;;;;;;;;;;;5133515;28;19924;-85
2020/12/18 11:45:02;;;;;;;;;;;;;;;;;;5130271;28;19931;-84
2020/12/18 11:47:28;;;;;;;;;;;;;;;;;;5104033;28;20346;-84
2020/12/18 12:06:22;;;;;;;;;;;;;;;;;;5097834;28;19965;-87
2020/12/18 12:08:49;;;;;;;;;;;;;;;;;;5087625;28;19931;-85
2020/12/18 12:11:16;;;;;;;;;;;;;;;;;;5077847;28;20377;-85
2020/12/18 12:13:42;;;;;;;;;;;;;;;;;;5079539;28;20333;-85
2020/12/18 12:16:11;;;;;;;;;;;;;;;;;;5098685;28;19924;-84
2020/12/18 12:18:37;;;;;;;;;;;;;;;;;;5098188;28;19931;-83
2020/12/18 12:21:03;;;;;;;;;;;;;;;;;;5099483;28;19973;-83
2020/12/18 12:23:30;;;;;;;;;;;;;;;;;;5095034;28;20435;-84
2020/12/18 12:25:57;;;;;;;;;;;;;;;;;;5095038;28;19924;-85
2020/12/18 12:28:23;;;;;;;;;;;;;;;;;;5095967;28;20015;-86
2020/12/18 12:30:50;;;;;;;;;;;;;;;;;;5096034;28;19928;-85
2020/12/18 12:33:16;;;;;;;;;;;;;;;;;;5091518;28;19924;-85
2020/12/18 12:35:43;;;;;;;;;;;;;;;;;;5112375;28;20400;-84
2020/12/18 12:38:10;;;;;;;;;;;;;;;;;;5115503;28;20322;-85
2020/12/18 12:40:37;;;;;;;;;;;;;;;;;;5116870;28;19931;-88
2020/12/18 12:43:06;;;;;;;;;;;;;;;;;;5122236;28;19924;-87
2020/12/18 12:45:32;;;;;;;;;;;;;;;;;;5119225;28;19936;-83
2020/12/18 12:47:58;;;;;;;;;;;;;;;;;;5118079;28;19924;-85
2020/12/18 12:50:25;;;;;;;;;;;;;;;;;;5119500;28;19969;-84
2020/12/18 12:52:51;;;;;;;;;;;;;;;;;;5116107;28;19945;-86
2020/12/18 12:55:18;;;;;;;;;;;;;;;;;;5120238;28;19923;-84
2020/12/18 12:57:44;;;;;;;;;;;;;;;;;;5123004;28;19934;-85
2020/12/18 13:00:10;;;;;;;;;;;;;;;;;;5115278;28;19931;-85
2020/12/18 13:02:37;;;;;;;;;;;;;;;;;;5124523;28;19978;-85
2020/12/18 13:05:03;;;;;;;;;;;;;;;;;;5128318;28;19924;-85
2020/12/18 13:07:30;;;;;;;;;;;;;;;;;;5128461;28;19924;-84
2020/12/18 13:09:56;;;;;;;;;;;;;;;;;;5123980;28;19985;-83
2020/12/18 13:12:23;;;;;;;;;;;;;;;;;;5122232;28;19924;-87
2020/12/18 13:14:49;;;;;;;;;;;;;;;;;;5122871;28;19924;-84
2020/12/18 13:17:16;;;;;;;;;;;;;;;;;;5122557;28;19960;-84
2020/12/18 13:19:42;;;;;;;;;;;;;;;;;;5121886;28;19978;-84
2020/12/18 13:22:08;;;;;;;;;;;;;;;;;;5113882;28;19924;-84
2020/12/18 13:24:35;;;;;;;;;;;;;;;;;;5114909;28;19928;-83
2020/12/18 13:27:01;;;;;;;;;;;;;;;;;;5104861;28;19924;-84
2020/12/18 13:29:27;;;;;;;;;;;;;;;;;;5122503;28;19931;-85
2020/12/18 13:31:54;;;;;;;;;;;;;;;;;;5127156;28;19924;-83
2020/12/18 13:34:20;;;;;;;;;;;;;;;;;;5123544;28;20396;-83
2020/12/18 13:36:46;;;;;;;;;;;;;;;;;;5103964;28;19924;-82
2020/12/18 13:39:13;;;;;;;;;;;;;;;;;;5132854;28;20296;-84
2020/12/18 13:41:39;;;;;;;;;;;;;;;;;;5118753;28;19924;-83
2020/12/18 13:44:06;;;;;;;;;;;;;;;;;;5111393;28;19931;-84
2020/12/18 13:46:32;;;;;;;;;;;;;;;;;;5119425;28;20284;-85
2020/12/18 13:48:59;;;;;;;;;;;;;;;;;;5111885;27;20240;-84
2020/12/18 13:51:25;;;;;;;;;;;;;;;;;;5117903;28;19927;-86
2020/12/18 13:53:51;;;;;;;;;;;;;;;;;;5120794;28;19912;-84
2020/12/18 13:56:18;;;;;;;;;;;;;;;;;;5104481;28;19924;-83
2020/12/18 13:58:44;;;;;;;;;;;;;;;;;;5116614;28;19956;-83
2020/12/18 14:01:10;;;;;;;;;;;;;;;;;;5119380;28;20295;-84
2020/12/18 14:03:37;;;;;;;;;;;;;;;;;;5118510;28;19928;-85
2020/12/18 14:06:03;;;;;;;;;;;;;;;;;;5118731;28;19924;-86
2020/12/18 14:08:30;;;;;;;;;;;;;;;;;;5141832;28;19908;-86
2020/12/18 14:10:56;;;;;;;;;;;;;;;;;;5130107;28;19939;-85
2020/12/18 14:13:22;;;;;;;;;;;;;;;;;;5134279;28;19915;-84
2020/12/18 14:15:49;;;;;;;;;;;;;;;;;;5140593;28;19976;-84
2020/12/18 14:18:15;;;;;;;;;;;;;;;;;;5127484;28;19931;-84
2020/12/18 14:20:41;;;;;;;;;;;;;;;;;;5128291;28;19942;-84
2020/12/18 14:23:08;;;;;;;;;;;;;;;;;;5126663;28;19931;-84
2020/12/18 14:25:34;;;;;;;;;;;;;;;;;;5127467;28;19935;-84
2020/12/18 14:28:01;;;;;;;;;;;;;;;;;;5124690;28;20375;-85
2020/12/18 14:30:27;;;;;;;;;;;;;;;;;;5115383;28;20312;-84
2020/12/18 14:32:53;;;;;;;;;;;;;;;;;;5127971;28;19931;-83
2020/12/18 14:35:20;;;;;;;;;;;;;;;;;;5118301;28;19935;-84
2020/12/18 14:37:46;;;;;;;;;;;;;;;;;;5120656;28;19912;-83
2020/12/18 14:40:12;;;;;;;;;;;;;;;;;;5107928;28;19928;-83
2020/12/18 14:42:39;;;;;;;;;;;;;;;;;;5135746;28;19907;-83
2020/12/18 14:45:05;;;;;;;;;;;;;;;;;;5119329;28;19924;-82
2020/12/18 14:47:31;;;;;;;;;;;;;;;;;;5102461;28;19932;-82
2020/12/18 14:49:58;;;;;;;;;;;;;;;;;;5111401;28;19948;-83
2020/12/18 14:52:24;;;;;;;;;;;;;;;;;;5136586;27;19932;-83
2020/12/18 14:54:51;;;;;;;;;;;;;;;;;;5134563;27;19943;-84
2020/12/18 14:57:17;;;;;;;;;;;;;;;;;;5103147;28;19946;-83
2020/12/18 14:59:43;;;;;;;;;;;;;;;;;;5103972;28;19924;-83
2020/12/18 15:02:10;;;;;;;;;;;;;;;;;;5104747;28;19924;-84
2020/12/18 15:04:37;;;;;;;;;;;;;;;;;;5104565;28;19924;-84
2020/12/18 15:07:03;;;;;;;;;;;;;;;;;;5102299;28;19924;-82
2020/12/18 15:09:29;;;;;;;;;;;;;;;;;;5104864;28;19978;-84
2020/12/18 15:11:56;;;;;;;;;;;;;;;;;;5103375;28;19981;-83
2020/12/18 15:14:22;;;;;;;;;;;;;;;;;;5107476;28;19950;-83
2020/12/18 15:16:49;;;;;;;;;;;;;;;;;;5103656;28;19924;-83
2020/12/18 15:19:15;;;;;;;;;;;;;;;;;;5103037;28;19928;-84
2020/12/18 15:21:41;;;;;;;;;;;;;;;;;;5099426;28;19973;-84
2020/12/18 15:24:08;;;;;;;;;;;;;;;;;;5098874;28;19924;-84
2020/12/18 15:26:34;;;;;;;;;;;;;;;;;;5098621;28;19928;-83
2020/12/18 15:29:01;;;;;;;;;;;;;;;;;;5099152;28;20380;-84
2020/12/18 15:31:27;;;;;;;;;;;;;;;;;;5099516;28;19924;-84
2020/12/18 15:33:53;;;;;;;;;;;;;;;;;;5108885;28;19968;-84
2020/12/18 15:36:20;;;;;;;;;;;;;;;;;;5102429;28;19924;-85
2020/12/18 15:38:46;;;;;;;;;;;;;;;;;;5099648;28;19978;-84
2020/12/18 15:41:13;;;;;;;;;;;;;;;;;;5097819;28;20273;-84
2020/12/18 15:43:39;;;;;;;;;;;;;;;;;;5099214;28;19936;-84
2020/12/18 15:46:05;;;;;;;;;;;;;;;;;;5097768;28;19924;-84
2020/12/18 15:48:32;;;;;;;;;;;;;;;;;;5098049;28;20446;-84
2020/12/18 15:50:58;;;;;;;;;;;;;;;;;;5098292;28;19924;-82
2020/12/18 15:53:24;;;;;;;;;;;;;;;;;;5098678;28;19931;-82
2020/12/18 15:55:51;;;;;;;;;;;;;;;;;;5097756;28;19924;-83
2020/12/18 15:58:17;;;;;;;;;;;;;;;;;;5101273;28;19932;-82
2020/12/18 16:00:44;;;;;;;;;;;;;;;;;;5098758;28;19932;-83
2020/12/18 16:03:10;;;;;;;;;;;;;;;;;;5101116;28;19924;-82
2020/12/18 16:05:36;;;;;;;;;;;;;;;;;;5116153;28;19923;-82
2020/12/18 16:08:03;;;;;;;;;;;;;;;;;;5117424;28;19923;-82
2020/12/18 16:10:29;;;;;;;;;;;;;;;;;;5117830;28;19924;-82
2020/12/18 16:12:55;;;;;;;;;;;;;;;;;;5098407;28;20285;-83
2020/12/18 16:15:22;;;;;;;;;;;;;;;;;;5097205;28;19924;-83
2020/12/18 16:17:48;;;;;;;;;;;;;;;;;;5103693;28;19951;-84
2020/12/18 16:20:14;;;;;;;;;;;;;;;;;;5122057;28;19914;-85
2020/12/18 16:22:41;;;;;;;;;;;;;;;;;;5128043;28;20380;-84
2020/12/18 16:25:08;;;;;;;;;;;;;;;;;;5104221;28;19932;-84
2020/12/18 16:27:37;;;;;;;;;;;;;;;;;;5118731;28;19924;-86
2020/12/18 16:30:04;;;;;;;;;;;;;;;;;;5125210;28;19935;-82
2020/12/18 16:32:30;;;;;;;;;;;;;;;;;;5111360;28;19924;-82
2020/12/18 16:34:57;;;;;;;;;;;;;;;;;;5122113;27;19923;-81
2020/12/18 16:37:23;;;;;;;;;;;;;;;;;;5121718;28;19924;-82
2020/12/18 16:39:50;;;;;;;;;;;;;;;;;;5121848;28;19936;-82
2020/12/18 16:42:17;;;;;;;;;;;;;;;;;;5113670;28;19970;-82
2020/12/18 16:44:43;;;;;;;;;;;;;;;;;;5122207;28;19924;-79
2020/12/18 16:47:10;;;;;;;;;;;;;;;;;;5127814;28;19927;-81
2020/12/18 16:49:37;;;;;;;;;;;;;;;;;;5119216;28;19927;-82
2020/12/18 16:52:03;;;;;;;;;;;;;;;;;;5121399;28;19991;-81
2020/12/18 16:54:30;;;;;;;;;;;;;;;;;;5124814;27;19930;-81
2020/12/18 16:57:00;;;;;;;;;;;;;;;;;;5119224;28;19924;-81
2020/12/18 16:59:27;;;;;;;;;;;;;;;;;;5121288;28;19924;-81
2020/12/18 17:01:53;;;;;;;;;;;;;;;;;;5120870;28;20683;-82
2020/12/18 17:04:19;;;;;;;;;;;;;;;;;;5103597;28;19970;-82
2020/12/18 17:06:46;;;;;;;;;;;;;;;;;;5131944;27;19927;-83
2020/12/18 17:09:12;;;;;;;;;;;;;;;;;;5143560;27;19972;-83
2020/12/18 17:11:38;;;;;;;;;;;;;;;;;;5111777;28;19924;-83
2020/12/18 17:14:05;;;;;;;;;;;;;;;;;;5112228;28;19932;-83
2020/12/18 17:16:31;;;;;;;;;;;;;;;;;;5132003;27;19928;-84